createdAt,value
2022-08-19T00:02:01.544Z,8.80
2022-08-19T00:04:33.362Z,9.23
2022-08-19T00:07:02.163Z,9.90
2022-08-19T00:09:30.650Z,10.70
2022-08-19T00:12:00.419Z,9.43
2022-08-19T00:14:31.999Z,9.90
2022-08-19T00:17:03.373Z,8.63
2022-08-19T00:19:32.383Z,8.97
2022-08-19T00:22:00.589Z,10.00
2022-08-19T00:24:29.592Z,9.67
2022-08-19T00:26:58.346Z,10.03
2022-08-19T00:29:46.275Z,9.97
2022-08-19T00:32:22.907Z,8.37
2022-08-19T00:34:54.220Z,9.17
2022-08-19T00:37:23.651Z,9.03
2022-08-19T00:39:52.179Z,9.13
2022-08-19T00:42:22.817Z,8.60
2022-08-19T00:44:51.515Z,9.70
2022-08-19T00:47:23.029Z,8.90
2022-08-19T00:49:53.998Z,8.93
2022-08-19T00:52:25.274Z,9.27
2022-08-19T00:54:54.766Z,10.00
2022-08-19T00:57:28.496Z,10.20
2022-08-19T01:00:02.361Z,9.47
2022-08-19T01:02:36.606Z,9.30
2022-08-19T01:05:10.065Z,9.90
2022-08-19T01:07:40.913Z,10.60
2022-08-19T01:10:12.335Z,10.03
2022-08-19T01:12:41.176Z,10.60
2022-08-19T01:15:11.771Z,9.10
2022-08-19T01:17:42.803Z,9.23
2022-08-19T01:20:13.992Z,9.70
2022-08-19T01:22:46.733Z,12.00
2022-08-19T01:25:15.458Z,10.67
2022-08-19T01:27:45.941Z,9.63
2022-08-19T01:30:16.299Z,11.43
2022-08-19T01:32:44.598Z,10.97
2022-08-19T01:35:14.294Z,10.50
2022-08-19T01:37:53.123Z,10.67
2022-08-19T01:40:22.599Z,10.03
2022-08-19T01:42:51.261Z,10.23
2022-08-19T01:45:19.735Z,10.37
2022-08-19T01:48:01.195Z,11.13
2022-08-19T01:50:31.143Z,11.20
2022-08-19T01:53:06.110Z,10.90
2022-08-19T01:55:41.203Z,9.77
2022-08-19T01:58:12.289Z,10.57
2022-08-19T02:00:40.283Z,9.13
2022-08-19T02:03:10.914Z,10.20
2022-08-19T02:05:39.568Z,11.47
2022-08-19T02:08:09.850Z,12.10
2022-08-19T02:10:42.465Z,12.20
2022-08-19T02:13:11.082Z,12.07
2022-08-19T02:15:40.355Z,13.30
2022-08-19T02:18:09.772Z,13.77
2022-08-19T02:20:39.384Z,14.03
2022-08-19T02:23:13.837Z,13.73
2022-08-19T02:25:45.298Z,14.50
2022-08-19T02:28:16.749Z,16.93
2022-08-19T02:30:47.732Z,16.20
2022-08-19T02:33:17.990Z,14.13
2022-08-19T02:35:46.976Z,13.53
2022-08-19T02:38:27.947Z,14.73
2022-08-19T02:40:58.981Z,11.83
2022-08-19T02:43:28.357Z,12.10
2022-08-19T02:45:56.457Z,11.90
2022-08-19T02:48:27.505Z,12.23
2022-08-19T02:50:56.798Z,12.50
2022-08-19T02:53:28.623Z,11.90
2022-08-19T02:55:56.893Z,12.37
2022-08-19T02:58:28.259Z,11.60
2022-08-19T03:00:58.586Z,12.70
2022-08-19T03:03:26.617Z,15.70
2022-08-19T03:06:04.477Z,13.50
2022-08-19T03:08:37.367Z,14.00
2022-08-19T03:11:05.744Z,15.77
2022-08-19T03:13:34.697Z,15.00
2022-08-19T03:16:06.790Z,15.63
2022-08-19T03:18:34.689Z,14.70
2022-08-19T03:21:03.246Z,15.97
2022-08-19T03:23:31.241Z,14.73
2022-08-19T03:26:15.564Z,15.53
2022-08-19T03:28:51.695Z,14.27
2022-08-19T03:31:45.626Z,15.20
2022-08-19T03:34:27.263Z,17.30
2022-08-19T03:36:56.593Z,19.27
2022-08-19T03:39:26.244Z,17.97
2022-08-19T03:42:31.751Z,17.30
2022-08-19T03:44:46.617Z,17.17
2022-08-19T03:47:18.124Z,16.70
2022-08-19T03:49:46.576Z,16.33
2022-08-19T03:52:15.110Z,17.23
2022-08-19T03:54:43.114Z,16.57
2022-08-19T03:57:12.611Z,16.13
2022-08-19T03:59:40.923Z,16.70
2022-08-19T04:02:11.225Z,15.70
2022-08-19T04:04:40.834Z,15.47
2022-08-19T04:07:10.316Z,15.90
2022-08-19T04:09:38.488Z,16.43
2022-08-19T04:12:07.719Z,16.73
2022-08-19T04:14:37.083Z,17.87
2022-08-19T04:17:08.452Z,16.03
2022-08-19T04:19:37.510Z,18.53
2022-08-19T04:22:06.327Z,19.20
2022-08-19T04:24:37.464Z,19.10
2022-08-19T04:27:06.422Z,17.03
2022-08-19T04:29:36.240Z,15.23
2022-08-19T04:32:09.264Z,16.40
2022-08-19T04:35:15.779Z,17.27
2022-08-19T04:37:25.639Z,16.60
2022-08-19T04:40:11.220Z,17.13
2022-08-19T04:42:41.774Z,17.53
2022-08-19T04:45:14.492Z,17.80
2022-08-19T04:47:47.725Z,17.10
2022-08-19T04:50:26.852Z,19.13
2022-08-19T04:52:56.312Z,18.80
2022-08-19T04:55:27.526Z,20.97
2022-08-19T04:57:55.685Z,17.40
2022-08-19T05:00:25.065Z,19.93
2022-08-19T05:02:53.441Z,16.47
2022-08-19T05:05:22.351Z,17.20
2022-08-19T05:07:50.236Z,20.00
2022-08-19T05:10:21.489Z,18.37
2022-08-19T05:12:49.740Z,17.70
2022-08-19T05:15:17.902Z,21.13
2022-08-19T05:18:02.413Z,19.90
2022-08-19T05:20:48.197Z,21.73
2022-08-19T05:23:22.074Z,21.63
2022-08-19T05:25:52.456Z,22.30
2022-08-19T05:28:20.691Z,23.43
2022-08-19T05:30:49.044Z,22.53
2022-08-19T05:33:18.468Z,20.80
2022-08-19T05:35:49.130Z,21.10
2022-08-19T05:38:17.542Z,22.97
2022-08-19T05:40:50.367Z,22.60
2022-08-19T05:43:19.169Z,21.07
2022-08-19T05:45:47.189Z,21.70
2022-08-19T05:48:16.015Z,20.70
2022-08-19T05:50:46.474Z,20.30
2022-08-19T05:53:15.459Z,19.90
2022-08-19T05:55:43.342Z,19.57
2022-08-19T05:58:13.750Z,20.33
2022-08-19T06:00:42.022Z,21.40
2022-08-19T06:03:12.960Z,19.27
2022-08-19T06:05:49.609Z,20.07
2022-08-19T06:08:34.387Z,20.30
2022-08-19T06:11:16.673Z,18.60
2022-08-19T06:13:45.968Z,19.37
2022-08-19T06:16:13.889Z,17.97
2022-08-19T06:18:41.776Z,20.43
2022-08-19T06:21:09.924Z,18.13
2022-08-19T06:23:39.882Z,20.73
2022-08-19T06:26:13.621Z,20.20
2022-08-19T06:28:43.778Z,19.93
2022-08-19T06:31:12.295Z,21.07
2022-08-19T06:33:40.503Z,19.63
2022-08-19T06:36:10.120Z,20.40
2022-08-19T06:38:39.387Z,19.93
2022-08-19T06:41:08.129Z,18.33
2022-08-19T06:43:37.023Z,20.20
2022-08-19T06:46:14.672Z,18.90
2022-08-19T06:48:45.301Z,19.27
2022-08-19T06:51:16.623Z,19.80
2022-08-19T06:56:25.761Z,17.73
2022-08-19T06:58:54.054Z,16.60
2022-08-19T07:01:22.395Z,16.63
2022-08-19T07:03:50.483Z,15.70
2022-08-19T07:06:43.366Z,15.33
2022-08-19T07:09:14.972Z,17.07
2022-08-19T07:11:48.137Z,15.30
2022-08-19T07:14:19.800Z,16.90
2022-08-19T07:16:49.678Z,15.30
2022-08-19T07:19:18.910Z,15.63
2022-08-19T07:21:48.258Z,16.50
2022-08-19T07:24:19.142Z,15.57
2022-08-19T07:26:47.340Z,17.43
2022-08-19T07:29:24.126Z,16.20
2022-08-19T07:31:57.003Z,15.20
2022-08-19T07:34:27.863Z,18.20
2022-08-19T07:36:56.648Z,15.60
2022-08-19T07:39:30.115Z,16.83
2022-08-19T07:42:00.423Z,17.10
2022-08-19T07:44:28.538Z,15.53
2022-08-19T07:47:01.082Z,17.03
2022-08-19T07:49:32.607Z,17.97
2022-08-19T07:52:03.178Z,18.53
2022-08-19T07:54:35.348Z,14.87
2022-08-19T07:57:04.716Z,17.60
2022-08-19T07:59:33.373Z,18.00
2022-08-19T08:02:06.963Z,16.77
2022-08-19T08:04:52.234Z,21.23
2022-08-19T08:07:38.042Z,19.10
2022-08-19T08:10:21.207Z,19.43
2022-08-19T08:13:09.408Z,17.20
2022-08-19T08:15:42.627Z,15.13
2022-08-19T08:18:11.841Z,16.03
2022-08-19T08:20:39.891Z,17.17
2022-08-19T08:23:27.180Z,16.60
2022-08-19T08:25:58.679Z,15.30
2022-08-19T08:28:30.578Z,14.30
2022-08-19T08:31:00.078Z,9.73
2022-08-19T08:33:34.790Z,11.73
2022-08-19T08:36:03.993Z,9.90
2022-08-19T08:38:39.095Z,13.23
2022-08-19T08:41:20.351Z,10.30
2022-08-19T08:43:51.974Z,10.80
2022-08-19T08:46:31.784Z,10.70
2022-08-19T08:49:06.564Z,12.97
2022-08-19T08:54:16.754Z,15.90
2022-08-19T08:56:47.786Z,16.90
2022-08-19T08:59:22.788Z,14.70
2022-08-19T09:01:50.745Z,15.60
2022-08-19T09:04:18.938Z,16.80
2022-08-19T09:06:54.907Z,16.40
2022-08-19T09:09:35.724Z,14.57
2022-08-19T09:12:14.758Z,19.87
2022-08-19T09:14:51.543Z,14.00
2022-08-19T09:17:28.973Z,13.03
2022-08-19T09:19:59.649Z,13.37
2022-08-19T09:22:29.694Z,11.57
2022-08-19T09:24:58.064Z,17.23
2022-08-19T09:27:42.252Z,15.17
2022-08-19T09:30:19.497Z,12.50
2022-08-19T09:32:52.843Z,12.30
2022-08-19T09:35:23.591Z,13.57
2022-08-19T09:37:57.779Z,13.30
2022-08-19T09:40:29.983Z,14.00
2022-08-19T09:43:03.475Z,13.33
2022-08-19T09:45:38.196Z,13.00
2022-08-19T09:48:07.253Z,16.70
2022-08-19T09:50:35.937Z,11.10
2022-08-19T09:53:04.270Z,22.73
2022-08-19T09:55:34.840Z,23.43
2022-08-19T09:58:05.423Z,22.17
2022-08-19T10:00:33.361Z,22.60
2022-08-19T10:03:01.310Z,12.30
2022-08-19T10:05:48.664Z,22.07
2022-08-19T10:08:18.546Z,25.70
2022-08-19T10:10:48.927Z,17.87
2022-08-19T10:13:22.802Z,19.40
2022-08-19T10:15:52.355Z,17.07
2022-08-19T10:18:22.511Z,13.30
2022-08-19T10:20:52.815Z,12.23
2022-08-19T10:23:21.916Z,11.27
2022-08-19T10:25:50.544Z,10.50
2022-08-19T10:28:21.918Z,10.20
2022-08-19T10:30:51.547Z,12.87
2022-08-19T10:33:39.342Z,14.00
2022-08-19T10:36:11.510Z,14.97
2022-08-19T10:38:40.108Z,13.67
2022-08-19T10:41:24.318Z,15.50
2022-08-19T10:44:04.514Z,12.60
2022-08-19T10:46:33.921Z,13.97
2022-08-19T10:49:02.471Z,15.30
2022-08-19T10:51:49.627Z,15.17
2022-08-19T10:54:17.987Z,13.47
2022-08-19T10:56:58.492Z,12.43
2022-08-19T10:59:35.839Z,11.23
2022-08-19T11:02:06.527Z,10.70
2022-08-19T11:04:35.787Z,9.20
2022-08-19T11:07:05.461Z,7.70
2022-08-19T11:09:34.639Z,10.00
2022-08-19T11:12:05.136Z,10.80
2022-08-19T11:14:35.718Z,11.17
2022-08-19T11:17:06.639Z,9.97
2022-08-19T11:19:35.122Z,9.57
2022-08-19T11:22:03.660Z,12.83
2022-08-19T11:24:33.628Z,10.90
2022-08-19T11:27:07.337Z,9.20
2022-08-19T11:29:37.893Z,11.80
2022-08-19T11:32:08.428Z,11.30
2022-08-19T11:34:36.406Z,10.80
2022-08-19T11:37:06.731Z,9.90
2022-08-19T11:39:37.886Z,8.17
2022-08-19T11:42:23.109Z,10.27
2022-08-19T11:44:52.966Z,9.80
2022-08-19T11:47:21.382Z,9.23
2022-08-19T11:49:49.520Z,10.47
2022-08-19T11:52:17.436Z,12.20
2022-08-19T11:54:45.338Z,11.10
2022-08-19T11:57:13.314Z,10.47
2022-08-19T11:59:41.255Z,14.57
2022-08-19T12:02:11.660Z,16.63
2022-08-19T12:04:39.515Z,16.53
2022-08-19T12:07:07.462Z,12.47
2022-08-19T12:09:38.561Z,11.10
2022-08-19T12:12:11.288Z,16.37
2022-08-19T12:14:39.456Z,12.80
2022-08-19T12:17:10.113Z,12.50
2022-08-19T12:19:40.371Z,14.30
2022-08-19T12:22:08.742Z,14.63
2022-08-19T12:24:36.790Z,12.87
2022-08-19T12:27:12.592Z,13.30
2022-08-19T12:29:42.330Z,11.93
2022-08-19T12:32:10.361Z,11.30
2022-08-19T12:34:42.230Z,10.83
2022-08-19T12:37:11.823Z,12.50
2022-08-19T12:39:42.317Z,11.90
2022-08-19T12:42:11.108Z,11.00
2022-08-19T12:44:41.670Z,11.07
2022-08-19T12:47:11.914Z,9.67
2022-08-19T12:49:53.507Z,11.90
2022-08-19T12:52:23.613Z,11.07
2022-08-19T12:54:53.949Z,10.50
2022-08-19T12:57:31.502Z,10.40
2022-08-19T13:00:01.520Z,10.20
2022-08-19T13:02:33.129Z,12.20
2022-08-19T13:05:12.005Z,11.57
2022-08-19T13:07:40.822Z,10.90
2022-08-19T13:10:12.002Z,12.20
2022-08-19T13:12:42.176Z,8.57
2022-08-19T13:15:11.497Z,11.13
2022-08-19T13:17:40.977Z,10.03
2022-08-19T13:20:12.270Z,9.23
2022-08-19T13:22:40.446Z,9.00
2022-08-19T13:25:12.892Z,8.60
2022-08-19T13:27:41.933Z,7.97
2022-08-19T13:30:29.570Z,7.47
2022-08-19T13:33:15.585Z,7.50
2022-08-19T13:35:50.360Z,6.73
2022-08-19T13:38:21.292Z,8.00
2022-08-19T13:40:51.229Z,7.27
2022-08-19T13:43:23.080Z,7.60
2022-08-19T13:45:57.081Z,8.20
2022-08-19T13:48:27.170Z,7.40
2022-08-19T13:50:57.353Z,6.60
2022-08-19T13:53:25.546Z,8.27
2022-08-19T13:55:54.567Z,6.23
2022-08-19T13:58:23.162Z,6.87
2022-08-19T14:00:51.186Z,7.30
2022-08-19T14:03:19.130Z,6.60
2022-08-19T14:05:47.833Z,7.33
2022-08-19T14:08:17.223Z,7.60
2022-08-19T14:10:46.392Z,8.03
2022-08-19T14:13:18.192Z,7.03
2022-08-19T14:15:49.213Z,6.87
2022-08-19T14:18:18.026Z,7.10
2022-08-19T14:20:46.741Z,6.90
2022-08-19T14:23:14.744Z,7.80
2022-08-19T14:25:45.763Z,7.10
2022-08-19T14:28:13.651Z,7.47
2022-08-19T14:30:41.600Z,7.03
2022-08-19T14:33:10.491Z,7.47
2022-08-19T14:35:45.788Z,6.70
2022-08-19T14:38:18.546Z,5.77
2022-08-19T14:40:58.608Z,5.60
2022-08-19T14:43:26.497Z,7.10
2022-08-19T14:45:54.400Z,5.80
2022-08-19T14:48:22.612Z,6.17
2022-08-19T14:50:57.099Z,5.40
2022-08-19T14:53:25.012Z,5.87
2022-08-19T14:55:53.002Z,5.57
2022-08-19T14:58:29.147Z,5.53
2022-08-19T15:01:00.711Z,6.00
2022-08-19T15:03:29.355Z,6.10
2022-08-19T15:05:58.214Z,6.07
2022-08-19T15:08:28.792Z,5.40
2022-08-19T15:10:57.807Z,5.13
2022-08-19T15:13:28.770Z,5.77
2022-08-19T15:15:57.964Z,5.47
2022-08-19T15:18:26.526Z,5.93
2022-08-19T15:20:54.980Z,5.47
2022-08-19T15:23:23.474Z,5.40
2022-08-19T15:25:54.335Z,5.03
2022-08-19T15:28:22.394Z,5.60
2022-08-19T15:30:52.545Z,4.83
2022-08-19T15:33:21.509Z,5.67
2022-08-19T15:35:51.540Z,5.03
2022-08-19T15:38:21.916Z,4.63
2022-08-19T15:40:51.438Z,4.90
2022-08-19T15:43:22.484Z,5.47
2022-08-19T15:45:51.737Z,5.83
2022-08-19T15:48:19.957Z,5.40
2022-08-19T15:50:47.871Z,5.37
2022-08-19T15:53:15.775Z,4.77
2022-08-19T15:55:45.864Z,4.80
2022-08-19T15:58:33.691Z,5.00
2022-08-19T16:01:27.061Z,5.30
2022-08-19T16:04:16.207Z,5.13
2022-08-19T16:06:47.006Z,4.93
2022-08-19T16:09:16.444Z,6.03
2022-08-19T16:11:45.816Z,6.23
2022-08-19T16:14:15.434Z,5.67
2022-08-19T16:16:49.598Z,5.40
2022-08-19T16:19:20.126Z,6.07
2022-08-19T16:21:50.953Z,7.00
2022-08-19T16:24:21.040Z,6.23
2022-08-19T16:26:49.379Z,7.17
2022-08-19T16:29:27.642Z,7.07
2022-08-19T16:32:04.960Z,6.80
2022-08-19T16:34:33.857Z,7.33
2022-08-19T16:37:02.727Z,7.73
2022-08-19T16:39:30.743Z,7.67
2022-08-19T16:41:59.266Z,8.00
2022-08-19T16:44:29.506Z,7.87
2022-08-19T16:46:59.529Z,7.90
2022-08-19T16:49:54.254Z,7.83
2022-08-19T16:52:21.958Z,8.57
2022-08-19T16:54:49.923Z,7.63
2022-08-19T16:57:18.393Z,8.30
2022-08-19T16:59:49.322Z,8.10
2022-08-19T17:02:17.852Z,8.50
2022-08-19T17:04:57.202Z,7.03
2022-08-19T17:07:26.605Z,7.13
2022-08-19T17:09:55.251Z,7.37
2022-08-19T17:12:31.549Z,7.33
2022-08-19T17:15:00.856Z,6.87
2022-08-19T17:17:29.475Z,7.70
2022-08-19T17:19:59.267Z,7.27
2022-08-19T17:22:27.599Z,8.60
2022-08-19T17:24:56.168Z,7.50
2022-08-19T17:27:32.297Z,9.53
2022-08-19T17:30:02.189Z,7.93
2022-08-19T17:32:30.604Z,8.60
2022-08-19T17:35:04.593Z,8.23
2022-08-19T17:37:32.724Z,10.67
2022-08-19T17:40:02.930Z,9.53
2022-08-19T17:42:31.895Z,8.60
2022-08-19T17:44:59.922Z,9.77
2022-08-19T17:47:28.897Z,8.50
2022-08-19T17:49:56.960Z,8.57
2022-08-19T17:52:26.526Z,9.23
2022-08-19T17:54:54.575Z,8.60
2022-08-19T17:57:22.466Z,8.60
2022-08-19T17:59:50.394Z,8.67
2022-08-19T18:02:21.883Z,8.40
2022-08-19T18:04:50.144Z,9.30
2022-08-19T18:07:21.855Z,9.70
2022-08-19T18:09:52.720Z,9.60
2022-08-19T18:12:24.466Z,9.03
2022-08-19T18:14:52.496Z,8.57
2022-08-19T18:17:23.519Z,9.10
2022-08-19T18:19:51.454Z,8.87
2022-08-19T18:22:26.610Z,9.07
2022-08-19T18:24:56.227Z,9.63
2022-08-19T18:27:24.597Z,8.60
2022-08-19T18:29:54.483Z,9.30
2022-08-19T18:32:23.707Z,9.43
2022-08-19T18:34:52.991Z,9.20
2022-08-19T18:37:20.939Z,8.80
2022-08-19T18:40:20.840Z,10.40
2022-08-19T18:43:19.281Z,8.57
2022-08-19T18:46:17.699Z,9.13
2022-08-19T18:49:02.855Z,10.30
2022-08-19T18:51:31.725Z,10.67
2022-08-19T18:54:01.226Z,9.90
2022-08-19T18:56:31.727Z,10.20
2022-08-19T18:59:01.262Z,9.70
2022-08-19T19:01:32.764Z,11.60
2022-08-19T19:04:05.931Z,10.17
2022-08-19T19:06:38.026Z,9.47
2022-08-19T19:09:06.697Z,9.80
2022-08-19T19:11:37.354Z,9.87
2022-08-19T19:14:19.125Z,9.83
2022-08-19T19:16:51.483Z,9.30
2022-08-19T19:19:20.316Z,10.17
2022-08-19T19:21:53.088Z,8.90
2022-08-19T19:24:24.196Z,9.50
2022-08-19T19:26:54.176Z,9.80
2022-08-19T19:29:24.483Z,9.90
2022-08-19T19:31:55.112Z,9.30
2022-08-19T19:34:29.783Z,10.00
2022-08-19T19:36:58.497Z,10.97
2022-08-19T19:39:30.730Z,9.17
2022-08-19T19:42:20.234Z,12.27
2022-08-19T19:44:53.699Z,12.00
2022-08-19T19:47:28.333Z,11.73
2022-08-19T19:50:14.901Z,11.80
2022-08-19T19:52:46.476Z,13.63
2022-08-19T19:55:17.860Z,12.03
2022-08-19T19:57:46.242Z,13.80
2022-08-19T20:00:18.969Z,11.90
2022-08-19T20:02:50.174Z,13.33
2022-08-19T20:05:21.157Z,13.33
2022-08-19T20:08:07.080Z,12.93
2022-08-19T20:10:35.329Z,12.80
2022-08-19T20:13:07.588Z,13.23
2022-08-19T20:15:43.338Z,11.93
2022-08-19T20:18:13.315Z,14.07
2022-08-19T20:20:41.882Z,11.80
2022-08-19T20:23:09.840Z,13.20
2022-08-19T20:25:39.590Z,11.43
2022-08-19T20:28:07.555Z,12.70
2022-08-19T20:30:43.339Z,11.63
2022-08-19T20:33:14.759Z,10.30
2022-08-19T20:35:44.793Z,12.60
2022-08-19T20:38:16.120Z,12.70
2022-08-19T20:40:44.060Z,12.63
2022-08-19T20:43:13.481Z,10.80
2022-08-19T20:45:42.811Z,10.77
2022-08-19T20:48:12.393Z,11.50
2022-08-19T20:50:40.873Z,11.93
2022-08-19T20:53:15.261Z,10.50
2022-08-19T20:55:45.378Z,11.93
2022-08-19T20:58:13.835Z,10.30
2022-08-19T21:00:45.545Z,11.63
2022-08-19T21:03:15.244Z,11.37
2022-08-19T21:05:43.224Z,10.50
2022-08-19T21:08:11.106Z,11.20
2022-08-19T21:10:42.287Z,11.37
2022-08-19T21:13:10.384Z,11.47
2022-08-19T21:15:40.517Z,11.13
2022-08-19T21:18:10.338Z,9.87
2022-08-19T21:20:38.294Z,10.50
2022-08-19T21:23:07.392Z,10.60
2022-08-19T21:25:35.632Z,10.27
2022-08-19T21:28:04.242Z,10.57
2022-08-19T21:30:32.247Z,11.00
2022-08-19T21:33:01.663Z,11.70
2022-08-19T21:35:33.983Z,11.13
2022-08-19T21:38:01.885Z,11.30
2022-08-19T21:40:30.214Z,9.73
2022-08-19T21:42:58.166Z,11.27
2022-08-19T21:45:26.214Z,10.20
2022-08-19T21:47:54.303Z,9.87
2022-08-19T21:50:25.787Z,9.70
2022-08-19T21:53:04.964Z,9.63
2022-08-19T21:55:32.841Z,8.07
2022-08-19T21:58:01.731Z,9.83
2022-08-19T22:00:32.310Z,9.70
2022-08-19T22:03:01.224Z,10.40
2022-08-19T22:05:31.339Z,9.67
2022-08-19T22:08:01.933Z,9.00
2022-08-19T22:10:34.152Z,10.30
2022-08-19T22:13:02.121Z,9.77
2022-08-19T22:15:30.047Z,9.67
2022-08-19T22:17:59.413Z,10.77
2022-08-19T22:20:30.880Z,10.33
2022-08-19T22:23:02.489Z,10.13
2022-08-19T22:25:32.735Z,10.57
2022-08-19T22:28:02.097Z,9.10
2022-08-19T22:30:33.372Z,9.73
2022-08-19T22:33:04.670Z,9.90
2022-08-19T22:35:37.909Z,9.73
2022-08-19T22:38:08.967Z,8.33
2022-08-19T22:40:40.328Z,9.30
2022-08-19T22:43:11.839Z,9.20
2022-08-19T22:45:40.075Z,7.93
2022-08-19T22:48:10.395Z,8.17
2022-08-19T22:50:40.013Z,8.60
2022-08-19T22:53:09.656Z,8.30
2022-08-19T22:55:40.450Z,8.90
2022-08-19T22:58:08.381Z,8.30
2022-08-19T23:00:36.402Z,8.50
2022-08-19T23:03:04.823Z,8.93
2022-08-19T23:05:32.717Z,9.23
2022-08-19T23:08:03.669Z,7.93
2022-08-19T23:10:33.001Z,8.30
2022-08-19T23:13:01.592Z,8.87
2022-08-19T23:15:32.460Z,7.53
2022-08-19T23:18:04.023Z,8.53
2022-08-19T23:20:35.359Z,7.30
2022-08-19T23:23:05.000Z,8.13
2022-08-19T23:25:35.651Z,7.17
2022-08-19T23:28:22.426Z,7.50
2022-08-19T23:30:51.884Z,6.70
2022-08-19T23:33:24.434Z,8.90
2022-08-19T23:35:54.453Z,9.43
2022-08-19T23:38:23.651Z,9.93
2022-08-19T23:40:54.761Z,11.40
2022-08-19T23:43:25.371Z,11.73
2022-08-19T23:45:53.606Z,13.30
2022-08-19T23:48:25.964Z,13.40
2022-08-19T23:50:57.438Z,14.43
2022-08-19T23:53:25.917Z,16.73
2022-08-19T23:55:55.688Z,14.00
2022-08-19T23:58:24.020Z,14.30
